Time;durP1;ratioP1;P1;durP2;ratioP2;P2;SDS_P1;SDS_P2;PMS_P1;PMS_P2;Temp;Humidity;BMP_temperature;BMP_pressure;BME280_temperature;BME280_humidity;BME280_pressure;Samples;Min_cycle;Max_cycle;Signal;HPM_P1;HPM_P2
2022/01/09 00:01:50;;;;;;;0.30;0.30;;;17.30;44.60;;;;;;5094726;28;20185;-25
2022/01/09 00:04:16;;;;;;;0.40;0.40;;;17.30;44.70;;;;;;5095567;28;20197;-22
2022/01/09 00:06:41;;;;;;;0.80;0.50;;;17.20;45.10;;;;;;5077782;28;20182;-24
2022/01/09 00:09:07;;;;;;;0.40;0.40;;;17.20;44.80;;;;;;5078174;28;20178;-25
2022/01/09 00:11:33;;;;;;;0.50;0.50;;;17.20;44.80;;;;;;5098188;28;20180;-23
2022/01/09 00:13:59;;;;;;;1.43;0.60;;;17.20;44.80;;;;;;5079197;28;20186;-21
2022/01/09 00:16:24;;;;;;;0.40;0.40;;;17.20;44.80;;;;;;5095984;28;20489;-21
2022/01/09 00:18:51;;;;;;;0.60;0.60;;;17.30;44.90;;;;;;5096750;28;20178;-23
2022/01/09 00:21:18;;;;;;;0.57;0.57;;;17.30;44.90;;;;;;5095927;28;20459;-22
2022/01/09 00:23:45;;;;;;;1.20;0.40;;;17.30;44.80;;;;;;5079375;28;20176;-23
2022/01/09 00:26:11;;;;;;;0.43;0.43;;;17.30;44.80;;;;;;5078492;28;20586;-21
2022/01/09 00:28:37;;;;;;;0.50;0.50;;;17.40;44.70;;;;;;5096951;28;20212;-23
2022/01/09 00:31:03;;;;;;;0.40;0.40;;;17.40;44.70;;;;;;5097506;28;20169;-23
2022/01/09 00:33:28;;;;;;;0.70;0.47;;;17.40;44.70;;;;;;5079450;28;20445;-22
2022/01/09 00:35:54;;;;;;;0.40;0.40;;;17.40;44.70;;;;;;5078098;28;20639;-23
2022/01/09 00:38:20;;;;;;;0.40;0.40;;;17.30;44.70;;;;;;5079081;28;20564;-23
2022/01/09 00:40:46;;;;;;;0.73;0.50;;;17.30;44.80;;;;;;5079176;28;20178;-22
2022/01/09 00:43:12;;;;;;;0.43;0.43;;;17.30;44.80;;;;;;5079421;28;20554;-22
2022/01/09 00:45:40;;;;;;;0.53;0.53;;;17.30;44.80;;;;;;5078922;28;20248;-22
2022/01/09 00:48:07;;;;;;;0.40;0.40;;;17.30;44.80;;;;;;5096461;28;20642;-25
2022/01/09 00:50:36;;;;;;;0.40;0.40;;;17.20;44.80;;;;;;5078640;28;20193;-22
2022/01/09 00:53:05;;;;;;;0.43;0.40;;;17.20;44.90;;;;;;5096737;28;20180;-23
2022/01/09 00:55:31;;;;;;;0.50;0.50;;;17.10;44.90;;;;;;5097009;28;20196;-23
2022/01/09 00:57:56;;;;;;;0.60;0.60;;;17.10;45.00;;;;;;5078227;28;20271;-25
2022/01/09 01:00:22;;;;;;;0.50;0.50;;;17.00;45.10;;;;;;5096782;28;20289;-23
2022/01/09 01:02:48;;;;;;;0.40;0.40;;;17.00;45.10;;;;;;5078689;28;20181;-21
2022/01/09 01:05:14;;;;;;;0.40;0.40;;;16.90;45.10;;;;;;5096060;28;20199;-24
2022/01/09 01:07:40;;;;;;;0.50;0.50;;;16.90;45.20;;;;;;5096348;28;20178;-23
2022/01/09 01:10:06;;;;;;;0.40;0.40;;;16.90;45.30;;;;;;5078942;28;20198;-19
2022/01/09 01:12:32;;;;;;;0.63;0.47;;;16.80;45.30;;;;;;5078590;28;20183;-23
2022/01/09 01:14:58;;;;;;;0.93;0.53;;;16.80;45.30;;;;;;5075996;28;20485;-21
2022/01/09 01:17:24;;;;;;;0.33;0.33;;;16.80;45.30;;;;;;5095487;28;20302;-23
2022/01/09 01:19:52;;;;;;;0.40;0.40;;;16.70;45.40;;;;;;5077140;28;20175;-21
2022/01/09 01:22:18;;;;;;;0.30;0.30;;;16.70;45.40;;;;;;5078040;28;20177;-23
2022/01/09 01:24:45;;;;;;;0.43;0.43;;;16.70;45.40;;;;;;5096605;28;20273;-21
2022/01/09 01:27:12;;;;;;;0.50;0.50;;;16.70;45.50;;;;;;5095213;28;20214;-23
2022/01/09 01:29:38;;;;;;;0.30;0.30;;;16.60;45.50;;;;;;5077765;28;20190;-23
2022/01/09 01:32:05;;;;;;;0.53;0.50;;;16.60;45.50;;;;;;5096122;28;20253;-24
2022/01/09 01:34:33;;;;;;;0.60;0.60;;;16.60;45.60;;;;;;5078333;28;20192;-23
2022/01/09 01:36:59;;;;;;;0.30;0.30;;;16.60;45.60;;;;;;5076597;28;20628;-21
2022/01/09 01:39:25;;;;;;;0.40;0.40;;;16.60;45.60;;;;;;5095341;28;20167;-21
2022/01/09 01:41:51;;;;;;;0.37;0.37;;;16.50;45.60;;;;;;5078216;28;20566;-23
2022/01/09 01:44:16;;;;;;;0.40;0.40;;;16.60;45.70;;;;;;5095803;28;20171;-24
2022/01/09 01:46:42;;;;;;;0.30;0.30;;;16.60;45.70;;;;;;5077499;28;20187;-21
2022/01/09 01:49:11;;;;;;;0.30;0.30;;;16.50;45.70;;;;;;5095451;28;20188;-24
2022/01/09 01:51:39;;;;;;;0.30;0.30;;;16.50;45.70;;;;;;5095679;28;20288;-22
2022/01/09 01:54:06;;;;;;;0.40;0.37;;;16.50;45.70;;;;;;5095797;28;20175;-22
2022/01/09 01:56:31;;;;;;;0.40;0.40;;;16.50;45.70;;;;;;5094200;28;20255;-22
2022/01/09 01:58:57;;;;;;;0.50;0.50;;;16.50;45.70;;;;;;5095314;28;20167;-21
2022/01/09 02:01:23;;;;;;;0.30;0.30;;;16.50;45.70;;;;;;5094736;28;20274;-24
2022/01/09 02:03:48;;;;;;;0.30;0.30;;;16.50;45.70;;;;;;5094058;28;20179;-23
2022/01/09 02:06:15;;;;;;;0.30;0.30;;;16.50;45.70;;;;;;5076924;28;20244;-23
2022/01/09 02:08:44;;;;;;;0.40;0.40;;;16.50;45.80;;;;;;5094823;28;20181;-24
2022/01/09 02:11:10;;;;;;;0.33;0.33;;;16.40;45.70;;;;;;5077314;28;20519;-21
2022/01/09 02:13:40;;;;;;;0.50;0.50;;;16.40;45.80;;;;;;5095589;28;20191;-24
2022/01/09 02:16:06;;;;;;;0.40;0.40;;;16.50;45.80;;;;;;5094652;28;20289;-21
2022/01/09 02:18:32;;;;;;;0.83;0.40;;;16.40;45.80;;;;;;5077985;28;20172;-23
2022/01/09 02:20:58;;;;;;;0.30;0.30;;;16.40;45.90;;;;;;5094203;28;20171;-21
2022/01/09 02:23:23;;;;;;;0.47;0.47;;;16.40;45.90;;;;;;5094630;28;20205;-23
2022/01/09 02:25:50;;;;;;;0.40;0.40;;;16.40;45.90;;;;;;5094728;28;20200;-24
2022/01/09 02:28:17;;;;;;;0.30;0.30;;;16.40;45.90;;;;;;5095058;28;20175;-22
2022/01/09 02:30:44;;;;;;;0.30;0.30;;;16.40;45.90;;;;;;5077815;28;20537;-22
2022/01/09 02:33:15;;;;;;;0.40;0.40;;;16.40;45.90;;;;;;5095639;28;20237;-21
2022/01/09 02:35:41;;;;;;;0.40;0.40;;;16.40;46.00;;;;;;5077650;28;20595;-22
2022/01/09 02:38:07;;;;;;;0.43;0.40;;;16.40;46.00;;;;;;5077379;28;20180;-24
2022/01/09 02:40:33;;;;;;;0.40;0.40;;;16.40;46.00;;;;;;5078326;28;20175;-20
2022/01/09 02:42:59;;;;;;;0.47;0.30;;;16.30;45.90;;;;;;5094992;28;20171;-21
2022/01/09 02:45:27;;;;;;;0.40;0.40;;;16.30;46.00;;;;;;5077462;28;20179;-22
2022/01/09 02:47:56;;;;;;;0.77;0.30;;;16.40;46.00;;;;;;5093526;28;20170;-23
2022/01/09 02:52:51;;;;;;;0.37;0.33;;;16.30;46.00;;;;;;5095275;28;20160;-23
2022/01/09 02:55:18;;;;;;;0.67;0.50;;;16.30;46.00;;;;;;5095117;28;20267;-23
2022/01/09 02:57:59;;;;;;;0.40;0.40;;;16.30;46.10;;;;;;5076137;28;20179;-22
2022/01/09 03:00:32;;;;;;;0.30;0.30;;;16.30;46.20;;;;;;5076484;28;20174;-21
2022/01/09 03:02:58;;;;;;;0.30;0.30;;;16.30;46.20;;;;;;5093968;28;20278;-21
2022/01/09 03:05:26;;;;;;;0.40;0.40;;;16.20;46.60;;;;;;5094927;28;20167;-24
2022/01/09 03:07:52;;;;;;;0.30;0.30;;;16.20;46.20;;;;;;5077263;28;20167;-22
2022/01/09 03:10:20;;;;;;;0.73;0.43;;;16.30;46.30;;;;;;5076603;28;20454;-24
2022/01/09 03:12:47;;;;;;;0.30;0.30;;;16.20;46.30;;;;;;5077771;28;20577;-22
2022/01/09 03:15:14;;;;;;;0.37;0.37;;;16.30;46.30;;;;;;5094738;28;20163;-21
2022/01/09 03:17:41;;;;;;;0.40;0.40;;;16.20;46.40;;;;;;5094697;28;20167;-23
2022/01/09 03:20:11;;;;;;;0.37;0.30;;;16.20;46.40;;;;;;5095120;28;20473;-21
2022/01/09 03:22:37;;;;;;;1.03;0.20;;;16.20;46.50;;;;;;5094621;28;20176;-23
2022/01/09 03:25:04;;;;;;;0.83;0.43;;;16.20;46.50;;;;;;5094666;28;20553;-23
2022/01/09 03:27:30;;;;;;;0.67;0.30;;;16.10;46.50;;;;;;5094327;28;20179;-20
2022/01/09 03:29:55;;;;;;;0.37;0.37;;;16.20;46.60;;;;;;5076993;28;20175;-22
2022/01/09 03:32:21;;;;;;;0.83;0.40;;;16.20;46.60;;;;;;5076951;28;20169;-22
2022/01/09 03:34:47;;;;;;;0.40;0.40;;;16.10;46.60;;;;;;5094670;28;20224;-23
2022/01/09 03:37:13;;;;;;;0.57;0.40;;;16.10;46.70;;;;;;5094251;28;20299;-22
2022/01/09 03:39:38;;;;;;;0.73;0.33;;;16.10;47.10;;;;;;5077262;28;20309;-23
2022/01/09 03:42:05;;;;;;;0.30;0.30;;;16.10;46.70;;;;;;5094366;28;20569;-21
2022/01/09 03:44:31;;;;;;;0.20;0.20;;;16.10;46.80;;;;;;5094176;28;20174;-21
2022/01/09 03:46:57;;;;;;;0.30;0.30;;;16.00;46.80;;;;;;5094960;28;20496;-22
2022/01/09 03:49:23;;;;;;;0.80;0.40;;;16.10;46.90;;;;;;5077374;28;20186;-22
2022/01/09 03:51:54;;;;;;;0.40;0.40;;;16.00;46.90;;;;;;5095133;28;20177;-23
2022/01/09 03:54:23;;;;;;;0.30;0.30;;;16.00;47.00;;;;;;5094743;28;20163;-24
2022/01/09 03:56:50;;;;;;;0.40;0.40;;;16.00;47.10;;;;;;5095168;28;20199;-23
2022/01/09 03:59:17;;;;;;;0.63;0.30;;;16.00;47.10;;;;;;5077353;28;20193;-22
2022/01/09 04:01:43;;;;;;;0.30;0.30;;;15.90;47.20;;;;;;5094792;28;20182;-25
2022/01/09 04:04:10;;;;;;;0.40;0.40;;;15.90;47.20;;;;;;5094863;28;20175;-22
2022/01/09 04:06:37;;;;;;;0.30;0.30;;;15.90;47.30;;;;;;5077330;28;20193;-22
2022/01/09 04:09:08;;;;;;;0.40;0.40;;;15.90;47.40;;;;;;5094899;28;20175;-23
2022/01/09 04:11:38;;;;;;;0.40;0.40;;;15.90;47.40;;;;;;5079465;28;20190;-24
2022/01/09 04:14:05;;;;;;;0.50;0.40;;;15.80;47.50;;;;;;5097996;28;20202;-18
2022/01/09 04:16:31;;;;;;;0.50;0.50;;;15.80;47.50;;;;;;5098337;28;20207;-24
2022/01/09 04:18:57;;;;;;;0.53;0.40;;;15.80;47.50;;;;;;5080684;28;20184;-19
2022/01/09 04:21:22;;;;;;;0.30;0.30;;;15.80;47.60;;;;;;5098962;28;20167;-23
2022/01/09 04:23:48;;;;;;;0.30;0.30;;;15.70;47.60;;;;;;5098096;28;20233;-23
2022/01/09 04:26:16;;;;;;;0.93;0.50;;;15.70;47.70;;;;;;5098707;28;20205;-21
2022/01/09 04:28:42;;;;;;;0.47;0.47;;;15.70;47.70;;;;;;5097995;28;20173;-23
2022/01/09 04:31:08;;;;;;;0.33;0.33;;;15.70;47.80;;;;;;5098695;28;20171;-23
2022/01/09 04:33:33;;;;;;;0.50;0.50;;;15.70;47.90;;;;;;5098187;28;20254;-22
2022/01/09 04:35:59;;;;;;;0.40;0.40;;;15.70;47.90;;;;;;5098251;28;20199;-23
2022/01/09 04:38:25;;;;;;;0.43;0.33;;;15.60;47.90;;;;;;5079948;28;20171;-23
2022/01/09 04:40:51;;;;;;;0.63;0.40;;;15.60;48.00;;;;;;5079966;28;20163;-21
2022/01/09 04:43:18;;;;;;;0.40;0.40;;;15.60;48.00;;;;;;5080056;28;20556;-22
2022/01/09 04:45:45;;;;;;;0.30;0.30;;;15.60;48.10;;;;;;5080486;28;20206;-24
2022/01/09 04:48:12;;;;;;;0.93;0.30;;;15.60;48.20;;;;;;5079480;28;20249;-24
2022/01/09 04:50:39;;;;;;;0.30;0.30;;;15.50;48.20;;;;;;5080231;28;20221;-20
2022/01/09 04:53:08;;;;;;;0.53;0.40;;;15.60;48.30;;;;;;5079565;28;20182;-22
2022/01/09 04:55:45;;;;;;;0.53;0.30;;;15.50;48.30;;;;;;5079620;28;20486;-22
2022/01/09 04:58:11;;;;;;;0.30;0.30;;;15.50;48.30;;;;;;5097291;28;20526;-23
2022/01/09 05:00:39;;;;;;;0.67;0.30;;;15.50;48.40;;;;;;5098081;28;20206;-23
2022/01/09 05:03:06;;;;;;;0.37;0.37;;;15.50;48.40;;;;;;5097836;28;20242;-23
2022/01/09 05:05:32;;;;;;;0.30;0.30;;;15.40;48.50;;;;;;5097452;28;20174;-23
2022/01/09 05:07:59;;;;;;;0.47;0.33;;;15.40;48.50;;;;;;5097465;28;20166;-23
2022/01/09 05:10:25;;;;;;;2.33;0.47;;;15.40;48.60;;;;;;5079257;28;20177;-23
2022/01/09 05:12:51;;;;;;;0.67;0.43;;;15.40;48.70;;;;;;5080366;28;20181;-25
2022/01/09 05:15:18;;;;;;;0.80;0.40;;;15.30;48.70;;;;;;5079426;28;20174;-24
2022/01/09 05:17:45;;;;;;;0.50;0.50;;;15.30;48.80;;;;;;5079547;28;20236;-20
2022/01/09 05:20:12;;;;;;;0.77;0.67;;;15.30;48.90;;;;;;5079761;28;20493;-23
2022/01/09 05:22:38;;;;;;;0.90;0.50;;;15.20;49.00;;;;;;5079201;28;20181;-20
2022/01/09 05:25:08;;;;;;;0.63;0.40;;;15.20;49.10;;;;;;5097546;28;20247;-22
2022/01/09 05:27:35;;;;;;;0.90;0.63;;;15.20;49.10;;;;;;5078827;28;20181;-22
2022/01/09 05:30:02;;;;;;;0.80;0.60;;;15.20;49.20;;;;;;5096477;28;20174;-20
2022/01/09 05:32:28;;;;;;;0.50;0.50;;;15.10;49.30;;;;;;5079035;28;20170;-22
2022/01/09 05:34:54;;;;;;;0.50;0.50;;;15.10;49.30;;;;;;5097094;28;20166;-23
2022/01/09 05:37:19;;;;;;;0.70;0.70;;;15.00;49.30;;;;;;5096567;28;20207;-24
2022/01/09 05:39:45;;;;;;;0.40;0.40;;;15.00;49.40;;;;;;5079051;28;20569;-23
2022/01/09 05:42:13;;;;;;;0.50;0.50;;;15.80;49.60;;;;;;5078813;28;20458;-23
2022/01/09 05:44:38;;;;;;;0.83;0.60;;;18.50;46.30;;;;;;5078853;28;20213;-21
2022/01/09 05:47:05;;;;;;;1.30;0.70;;;19.10;44.50;;;;;;5096463;28;20269;-20
2022/01/09 05:49:31;;;;;;;1.53;0.87;;;19.30;43.90;;;;;;5097403;28;20188;-21
2022/01/09 05:51:57;;;;;;;1.73;0.87;;;19.40;43.70;;;;;;5096745;28;20448;-23
2022/01/09 05:54:23;;;;;;;0.80;0.70;;;19.70;43.50;;;;;;5078739;28;20180;-24
2022/01/09 05:56:51;;;;;;;1.93;0.70;;;20.10;43.20;;;;;;5078250;28;20255;-23
2022/01/09 05:59:18;;;;;;;2.30;1.03;;;20.60;42.70;;;;;;5095668;28;20215;-23
2022/01/09 06:01:44;;;;;;;0.67;0.60;;;20.90;42.30;;;;;;5078146;28;20174;-23
2022/01/09 06:04:10;;;;;;;1.33;0.80;;;21.20;42.00;;;;;;5096129;28;20171;-23
2022/01/09 06:06:35;;;;;;;1.03;0.70;;;21.40;41.80;;;;;;5096157;28;20480;-22
2022/01/09 06:09:01;;;;;;;2.37;1.00;;;21.50;41.60;;;;;;5078203;28;20167;-21
2022/01/09 06:11:27;;;;;;;1.90;0.83;;;21.70;41.50;;;;;;5077814;28;20172;-23
2022/01/09 06:13:53;;;;;;;1.90;0.83;;;22.00;41.20;;;;;;5095519;28;20506;-23
2022/01/09 06:16:18;;;;;;;2.20;0.90;;;22.20;40.90;;;;;;5095302;28;20271;-24
2022/01/09 06:18:44;;;;;;;1.03;0.80;;;22.40;40.80;;;;;;5078716;28;20184;-23
2022/01/09 06:21:10;;;;;;;1.73;0.90;;;22.40;40.80;;;;;;5076998;28;20174;-22
2022/01/09 06:23:35;;;;;;;1.47;0.87;;;22.40;40.80;;;;;;5095583;28;20225;-26
2022/01/09 06:26:01;;;;;;;2.23;1.00;;;22.50;40.80;;;;;;5078142;28;20175;-22
2022/01/09 06:28:27;;;;;;;2.07;0.90;;;22.70;40.60;;;;;;5078243;28;20601;-23
2022/01/09 06:30:53;;;;;;;1.30;1.00;;;22.90;40.40;;;;;;5095058;28;20174;-22
2022/01/09 06:33:19;;;;;;;1.63;0.90;;;23.00;40.30;;;;;;5095168;28;20177;-23
2022/01/09 06:35:45;;;;;;;1.90;0.90;;;23.00;40.30;;;;;;5077830;28;20460;-25
2022/01/09 06:38:11;;;;;;;1.60;0.90;;;22.90;40.40;;;;;;5076939;28;20180;-24
2022/01/09 06:40:37;;;;;;;2.10;1.23;;;22.90;40.50;;;;;;5095908;28;20185;-23
2022/01/09 06:43:03;;;;;;;2.00;1.10;;;23.10;40.40;;;;;;5076745;28;20174;-22
2022/01/09 06:45:29;;;;;;;2.33;0.90;;;23.30;40.30;;;;;;5095095;28;20170;-24
2022/01/09 06:47:57;;;;;;;1.57;1.10;;;23.30;40.30;;;;;;5095211;28;20169;-23
2022/01/09 06:50:23;;;;;;;1.40;1.00;;;23.30;40.30;;;;;;5095824;28;20466;-23
2022/01/09 06:52:49;;;;;;;3.20;1.40;;;23.30;40.30;;;;;;5095171;28;20167;-23
2022/01/09 06:55:15;;;;;;;1.73;1.03;;;23.30;40.30;;;;;;5095514;28;20442;-23
2022/01/09 06:57:41;;;;;;;2.47;1.10;;;23.50;40.20;;;;;;5077975;28;20206;-22
2022/01/09 07:00:09;;;;;;;3.00;1.27;;;23.70;40.00;;;;;;5078131;28;20579;-22
2022/01/09 07:02:35;;;;;;;2.57;1.30;;;23.80;40.00;;;;;;5095716;28;20163;-22
2022/01/09 07:05:00;;;;;;;1.90;1.00;;;23.70;40.00;;;;;;5077821;28;20511;-24
2022/01/09 07:07:26;;;;;;;2.30;1.10;;;23.60;40.10;;;;;;5095548;28;20270;-22
2022/01/09 07:09:52;;;;;;;1.40;0.83;;;23.60;40.20;;;;;;5094195;28;20266;-25
2022/01/09 07:12:19;;;;;;;2.00;1.00;;;23.60;40.70;;;;;;5077620;28;20202;-21
2022/01/09 07:14:46;;;;;;;4.10;1.20;;;23.60;40.20;;;;;;5094520;28;20234;-23
2022/01/09 07:17:12;;;;;;;2.00;1.00;;;23.80;40.20;;;;;;5094528;28;20225;-21
2022/01/09 07:19:38;;;;;;;2.13;1.20;;;23.70;40.10;;;;;;5076823;28;20171;-22
2022/01/09 07:22:06;;;;;;;2.10;1.13;;;23.70;40.20;;;;;;5094332;28;20174;-21
2022/01/09 07:24:33;;;;;;;3.17;1.30;;;23.50;40.30;;;;;;5088482;28;20175;-23
2022/01/09 07:26:59;;;;;;;2.53;1.10;;;23.40;40.50;;;;;;5094907;28;20194;-25
2022/01/09 07:29:25;;;;;;;2.23;1.20;;;23.10;40.70;;;;;;5094904;28;20220;-23
2022/01/09 07:31:51;;;;;;;1.63;1.20;;;22.90;40.90;;;;;;5094891;28;20185;-24
2022/01/09 07:34:21;;;;;;;2.03;1.10;;;22.70;41.10;;;;;;5077268;28;20170;-23
2022/01/09 07:36:47;;;;;;;1.87;1.00;;;22.50;41.30;;;;;;5094618;28;20215;-22
2022/01/09 07:39:13;;;;;;;3.20;1.17;;;22.40;41.40;;;;;;5076589;28;20314;-25
2022/01/09 07:41:40;;;;;;;1.63;1.00;;;22.30;41.60;;;;;;5093991;28;20268;-23
2022/01/09 07:44:05;;;;;;;1.90;1.00;;;22.20;41.70;;;;;;5076526;28;20178;-24
2022/01/09 07:46:31;;;;;;;1.97;1.00;;;22.10;41.80;;;;;;5079252;28;20204;-25
2022/01/09 07:48:57;;;;;;;2.93;1.10;;;22.10;41.80;;;;;;5080745;28;20213;-21
2022/01/09 07:51:23;;;;;;;2.53;1.33;;;22.30;41.70;;;;;;5079925;28;20550;-21
2022/01/09 07:53:48;;;;;;;2.00;1.30;;;22.70;41.40;;;;;;5098082;28;20171;-23
2022/01/09 07:56:14;;;;;;;2.63;1.27;;;23.10;40.90;;;;;;5080488;28;20209;-24
2022/01/09 07:58:40;;;;;;;2.30;1.20;;;23.40;40.60;;;;;;5080687;28;20177;-22
2022/01/09 08:01:06;;;;;;;2.30;0.90;;;23.70;40.30;;;;;;5097691;28;20159;-24
2022/01/09 08:03:32;;;;;;;4.03;1.20;;;24.00;40.40;;;;;;5080320;28;20488;-22
2022/01/09 08:05:58;;;;;;;1.83;0.90;;;24.10;39.80;;;;;;5097626;28;20242;-23
2022/01/09 08:08:24;;;;;;;2.13;1.10;;;24.10;39.70;;;;;;5079739;28;20197;-25
2022/01/09 08:10:49;;;;;;;1.93;1.00;;;24.00;39.90;;;;;;5098938;28;20175;-22
2022/01/09 08:13:15;;;;;;;1.70;1.10;;;23.90;40.00;;;;;;5097954;28;20207;-22
2022/01/09 08:15:41;;;;;;;1.73;1.30;;;23.80;40.00;;;;;;5097034;28;20488;-23
2022/01/09 08:18:07;;;;;;;3.13;1.10;;;24.00;40.00;;;;;;5096724;28;20254;-24
2022/01/09 08:20:32;;;;;;;2.00;1.00;;;24.00;39.90;;;;;;5097524;28;20323;-22
2022/01/09 08:22:58;;;;;;;2.83;1.33;;;24.00;39.90;;;;;;5097225;28;20254;-22
2022/01/09 08:25:24;;;;;;;2.37;1.00;;;24.00;39.90;;;;;;5097010;28;20559;-23
2022/01/09 08:27:50;;;;;;;2.40;1.17;;;23.90;40.00;;;;;;5078468;28;20168;-22
2022/01/09 08:30:18;;;;;;;1.73;1.17;;;23.80;40.10;;;;;;5096109;28;20196;-24
2022/01/09 08:32:44;;;;;;;2.67;1.30;;;23.70;40.10;;;;;;5096648;28;20330;-24
2022/01/09 08:35:10;;;;;;;4.97;1.40;;;23.70;40.20;;;;;;5096824;28;20163;-24
2022/01/09 08:37:37;;;;;;;1.50;1.00;;;23.40;40.40;;;;;;5095961;28;20214;-24
2022/01/09 08:40:03;;;;;;;2.47;1.10;;;23.30;40.70;;;;;;5096221;28;20163;-23
2022/01/09 08:42:29;;;;;;;3.33;1.20;;;23.00;40.80;;;;;;5096757;28;20163;-23
2022/01/09 08:44:55;;;;;;;2.10;1.20;;;22.80;41.00;;;;;;5096762;28;20494;-22
2022/01/09 08:47:23;;;;;;;2.10;1.27;;;22.60;41.20;;;;;;5096759;28;20184;-24
2022/01/09 08:49:49;;;;;;;1.57;1.17;;;22.50;41.30;;;;;;5095099;28;20739;-23
2022/01/09 08:52:14;;;;;;;2.40;1.10;;;22.40;41.40;;;;;;5078974;28;20171;-24
2022/01/09 08:54:40;;;;;;;3.00;1.20;;;22.30;41.50;;;;;;5095599;28;20562;-24
2022/01/09 08:57:06;;;;;;;2.37;1.27;;;22.30;41.60;;;;;;5077517;28;20217;-25
2022/01/09 08:59:32;;;;;;;3.00;1.40;;;22.30;42.00;;;;;;5077491;28;20308;-22
2022/01/09 09:01:58;;;;;;;2.80;1.40;;;22.40;41.60;;;;;;5096405;28;20546;-22
2022/01/09 09:04:24;;;;;;;2.30;1.30;;;22.60;41.40;;;;;;5078518;28;20178;-22
2022/01/09 09:06:50;;;;;;;4.10;1.43;;;22.80;41.20;;;;;;5077345;28;20602;-25
2022/01/09 09:09:16;;;;;;;2.80;1.20;;;23.10;41.00;;;;;;5096198;28;20383;-22
2022/01/09 09:11:42;;;;;;;1.70;1.27;;;23.40;40.60;;;;;;5077578;28;20209;-23
2022/01/09 09:14:08;;;;;;;2.87;1.40;;;23.80;40.30;;;;;;5095316;28;20605;-23
2022/01/09 09:16:34;;;;;;;3.83;1.20;;;24.00;40.00;;;;;;5095335;28;20198;-23
2022/01/09 09:19:00;;;;;;;3.60;1.40;;;24.00;39.90;;;;;;5094991;28;20409;-24
2022/01/09 09:21:26;;;;;;;3.63;1.27;;;24.10;39.90;;;;;;5096164;28;20250;-22
2022/01/09 09:23:51;;;;;;;1.97;1.20;;;24.10;39.80;;;;;;5094307;28;20548;-23
2022/01/09 09:26:17;;;;;;;2.07;1.20;;;24.10;39.90;;;;;;5092779;28;20175;-23
2022/01/09 09:28:43;;;;;;;3.17;1.30;;;24.10;39.90;;;;;;5094139;28;20171;-20
2022/01/09 09:31:09;;;;;;;2.73;1.33;;;24.00;40.00;;;;;;5094488;28;20228;-22
2022/01/09 09:33:35;;;;;;;3.70;1.40;;;24.00;40.10;;;;;;5076482;28;20175;-22
2022/01/09 09:36:02;;;;;;;4.57;1.23;;;23.90;40.20;;;;;;5094102;28;20268;-22
2022/01/09 09:38:28;;;;;;;5.33;1.57;;;24.10;40.30;;;;;;5093215;28;20201;-23
2022/01/09 09:40:54;;;;;;;4.67;1.50;;;24.00;40.20;;;;;;5075889;28;20587;-23
2022/01/09 09:43:20;;;;;;;5.23;1.70;;;24.00;40.40;;;;;;5095051;28;20235;-23
2022/01/09 09:45:46;;;;;;;3.50;1.40;;;23.90;40.50;;;;;;5093343;28;20651;-28
2022/01/09 09:48:12;;;;;;;3.73;1.53;;;23.80;40.70;;;;;;5075916;28;20289;-25
2022/01/09 09:50:38;;;;;;;2.87;1.20;;;23.70;40.70;;;;;;5093617;28;20293;-23
2022/01/09 09:53:04;;;;;;;2.97;1.30;;;23.40;40.90;;;;;;5094531;28;20197;-22
2022/01/09 09:55:31;;;;;;;3.97;1.77;;;23.20;41.10;;;;;;5093943;28;20190;-24
2022/01/09 09:57:57;;;;;;;2.47;1.40;;;23.00;41.40;;;;;;5094535;28;20196;-23
2022/01/09 10:00:24;;;;;;;7.60;1.70;;;22.70;41.50;;;;;;5093732;28;20231;-25
2022/01/09 10:02:52;;;;;;;3.83;1.57;;;22.40;42.00;;;;;;5093896;28;20604;-20
2022/01/09 10:05:20;;;;;;;3.37;1.30;;;22.20;42.20;;;;;;5092843;28;20174;-25
2022/01/09 10:07:46;;;;;;;3.30;1.90;;;22.00;42.40;;;;;;5075644;28;20201;-23
2022/01/09 10:10:15;;;;;;;3.60;1.80;;;21.70;42.70;;;;;;5092693;28;20189;-23
2022/01/09 10:12:43;;;;;;;3.07;1.40;;;21.50;42.90;;;;;;5075047;28;20179;-24
2022/01/09 10:15:12;;;;;;;4.20;1.20;;;21.70;43.00;;;;;;5075801;28;20201;-23
2022/01/09 10:17:46;;;;;;;3.00;1.53;;;22.30;42.40;;;;;;5075398;28;20219;-23
2022/01/09 10:20:17;;;;;;;4.60;1.57;;;23.00;41.80;;;;;;5075399;28;20181;-23
2022/01/09 10:22:51;;;;;;;5.47;1.87;;;23.50;41.30;;;;;;5074615;28;20198;-23
2022/01/09 10:25:25;;;;;;;2.97;1.40;;;23.90;40.80;;;;;;5094043;28;20426;-23
2022/01/09 10:28:23;;;;;;;4.53;1.70;;;24.20;40.40;;;;;;5093225;28;20453;-23
2022/01/09 10:30:52;;;;;;;4.43;1.60;;;24.20;40.20;;;;;;5092254;28;20163;-23
2022/01/09 10:33:25;;;;;;;3.53;1.67;;;24.00;40.40;;;;;;5074916;28;20174;-22
2022/01/09 10:35:52;;;;;;;3.03;1.60;;;23.90;40.50;;;;;;5090156;28;20299;-27
2022/01/09 10:38:25;;;;;;;4.03;1.60;;;23.80;40.70;;;;;;5093288;28;20229;-25
2022/01/09 10:40:57;;;;;;;2.53;1.40;;;23.80;40.70;;;;;;5092369;28;20171;-27
2022/01/09 10:43:41;;;;;;;3.07;1.60;;;23.90;40.70;;;;;;5091274;28;20213;-25
2022/01/09 10:46:08;;;;;;;3.20;1.37;;;23.90;40.70;;;;;;5073521;28;20186;-22
2022/01/09 10:48:43;;;;;;;3.53;1.70;;;23.90;40.70;;;;;;5092711;28;20173;-23
2022/01/09 10:51:11;;;;;;;2.57;1.40;;;23.70;40.70;;;;;;5075000;28;20183;-22
2022/01/09 10:53:38;;;;;;;4.53;1.47;;;23.70;40.80;;;;;;5074051;28;20247;-24
2022/01/09 10:56:20;;;;;;;4.50;1.50;;;23.70;40.90;;;;;;5092614;28;20249;-23
2022/01/09 10:58:52;;;;;;;4.43;1.43;;;23.70;40.90;;;;;;5074875;28;20179;-24
2022/01/09 11:01:21;;;;;;;4.03;1.60;;;23.60;41.00;;;;;;5092668;28;20610;-26
2022/01/09 11:03:58;;;;;;;2.77;1.40;;;23.40;41.10;;;;;;5074940;28;20179;-24
2022/01/09 11:06:26;;;;;;;3.33;1.60;;;23.20;41.30;;;;;;5074057;28;20185;-21
2022/01/09 11:08:54;;;;;;;4.93;1.80;;;23.10;41.50;;;;;;5093209;28;20175;-23
2022/01/09 11:13:58;;;;;;;3.13;1.50;;;22.90;41.70;;;;;;5093394;28;20471;-23
2022/01/09 11:16:36;;;;;;;4.67;1.30;;;22.80;41.90;;;;;;5074000;28;20214;-25
2022/01/09 11:19:13;;;;;;;3.07;1.80;;;22.70;42.00;;;;;;5092480;28;20166;-24
2022/01/09 11:21:45;;;;;;;2.77;1.43;;;22.50;42.10;;;;;;5078009;28;20448;-26
2022/01/09 11:24:29;;;;;;;5.17;1.73;;;22.40;42.30;;;;;;5062918;28;20232;-25
2022/01/09 11:27:05;;;;;;;3.53;1.53;;;22.40;42.30;;;;;;5096095;28;20556;-24
2022/01/09 11:29:59;;;;;;;4.10;1.63;;;22.50;42.30;;;;;;5096556;28;20267;-23
2022/01/09 11:32:49;;;;;;;2.13;1.30;;;22.60;42.20;;;;;;5078106;28;20190;-26
2022/01/09 11:35:43;;;;;;;3.57;1.30;;;22.80;42.10;;;;;;5079411;28;20285;-20
2022/01/09 11:38:53;;;;;;;3.00;1.53;;;23.00;41.90;;;;;;5078955;28;20318;-21
2022/01/09 11:41:21;;;;;;;2.80;1.30;;;23.50;41.50;;;;;;5076213;28;20249;-22
2022/01/09 11:44:11;;;;;;;3.80;1.40;;;23.80;41.10;;;;;;5095633;28;20183;-21
2022/01/09 11:47:05;;;;;;;3.67;1.50;;;24.00;40.90;;;;;;5078670;28;20208;-24
2022/01/09 11:49:54;;;;;;;3.90;1.47;;;24.20;40.70;;;;;;5078851;28;20206;-22
2022/01/09 11:52:20;;;;;;;3.10;1.20;;;24.30;40.60;;;;;;5094545;28;20213;-19
2022/01/09 11:54:51;;;;;;;2.20;1.30;;;24.30;40.50;;;;;;5077623;28;20167;-21
2022/01/09 11:57:37;;;;;;;2.90;1.30;;;24.30;40.50;;;;;;5094127;28;20521;-23
2022/01/09 12:00:28;;;;;;;2.27;1.23;;;24.20;40.60;;;;;;5077583;28;20592;-21
2022/01/09 12:02:54;;;;;;;2.67;1.60;;;24.10;40.70;;;;;;5061252;28;20191;-22
2022/01/09 12:05:19;;;;;;;3.10;1.43;;;24.00;40.80;;;;;;5095182;28;20179;-22
2022/01/09 12:07:47;;;;;;;2.67;1.60;;;24.00;40.80;;;;;;5094999;28;20185;-22
2022/01/09 12:10:35;;;;;;;1.90;1.20;;;24.00;40.80;;;;;;5077835;28;20277;-22
2022/01/09 12:13:03;;;;;;;3.13;1.70;;;24.00;40.80;;;;;;5077335;28;20587;-23
2022/01/09 12:15:34;;;;;;;3.10;1.50;;;23.90;40.90;;;;;;5078019;28;20476;-23
2022/01/09 12:18:03;;;;;;;3.63;1.40;;;23.90;41.00;;;;;;5076822;28;20677;-23
2022/01/09 12:20:32;;;;;;;2.67;1.60;;;23.70;41.10;;;;;;5094788;28;20163;-23
2022/01/09 12:23:04;;;;;;;3.43;1.60;;;23.70;41.30;;;;;;5094576;28;20166;-22
2022/01/09 12:25:33;;;;;;;4.93;1.80;;;23.60;41.40;;;;;;5077414;28;20173;-23
2022/01/09 12:28:07;;;;;;;5.50;1.97;;;23.40;41.50;;;;;;5094431;28;20167;-22
2022/01/09 12:30:33;;;;;;;4.40;1.70;;;23.20;41.70;;;;;;5095079;28;20215;-22
2022/01/09 12:33:06;;;;;;;4.53;1.80;;;23.00;41.90;;;;;;5075165;28;20174;-22
2022/01/09 12:35:33;;;;;;;3.37;1.80;;;22.70;42.10;;;;;;5094319;28;20163;-24
2022/01/09 12:38:00;;;;;;;3.53;1.60;;;22.50;42.50;;;;;;5075404;28;20179;-22
2022/01/09 12:40:28;;;;;;;4.77;2.03;;;22.30;42.80;;;;;;5093388;28;20254;-24
2022/01/09 12:42:56;;;;;;;5.30;2.07;;;22.00;43.10;;;;;;5095088;28;20177;-21
2022/01/09 12:45:26;;;;;;;5.43;2.03;;;21.70;43.60;;;;;;5077002;28;20269;-22
2022/01/09 12:47:55;;;;;;;5.03;1.90;;;21.50;44.00;;;;;;5076062;28;20179;-21
2022/01/09 12:50:29;;;;;;;7.73;2.30;;;21.30;44.30;;;;;;5076491;28;20255;-20
2022/01/09 12:53:35;;;;;;;6.93;2.40;;;21.80;44.20;;;;;;5094224;28;20237;-23
2022/01/09 12:56:11;;;;;;;7.53;2.37;;;22.40;43.40;;;;;;4993207;28;20275;-23
2022/01/09 12:58:41;;;;;;;5.10;2.17;;;22.90;43.00;;;;;;5084296;28;20262;-21